CDT,Max TemperatureF,Mean TemperatureF,Min TemperatureF,Max Dew PointF,MeanDew PointF,Min DewpointF,Max Humidity, Mean Humidity, Min Humidity, Max Sea Level PressureIn, Mean Sea Level PressureIn, Min Sea Level PressureIn, Max VisibilityMiles, Mean VisibilityMiles, Min VisibilityMiles, Max Wind SpeedMPH, Mean Wind SpeedMPH, Max Gust SpeedMPH,PrecipitationIn, CloudCover, Events, WindDirDegrees
2013-7-1,86,75,64,65,63,62,93,69,45,29.93,29.87,29.81,10,10,10,14,5,22,0.00,2,,330
2013-7-2,87,76,65,68,62,57,93,67,40,30.03,29.98,29.92,10,10,8,10,3,15,0.00,1,,11
2013-7-3,90,77,63,66,63,60,93,67,40,30.06,30.02,29.97,10,9,7,13,4,20,0.00,2,,49
2013-7-4,90,79,68,70,68,65,97,71,44,30.02,29.98,29.92,10,9,5,13,5,17,T,4,,39
2013-7-5,84,77,70,73,71,67,100,81,62,30.05,30.00,29.97,10,9,5,14,4,20,0.02,4,Rain,109
2013-7-6,87,78,69,72,70,66,100,79,57,30.06,30.02,29.96,10,10,6,14,6,23,T,5,,116
2013-7-7,91,82,73,75,71,70,93,73,52,30.11,30.05,30.00,10,10,6,15,4,21,0.00,6,,146
2013-7-8,93,83,72,73,71,68,94,69,44,30.17,30.11,30.07,10,10,8,10,4,14,0.00,5,,203
2013-7-9,94,83,72,75,72,71,93,71,49,30.18,30.12,30.06,10,10,10,18,5,25,0.02,3,Rain-Thunderstorm,214
2013-7-10,94,84,74,75,73,70,94,72,49,30.10,30.03,29.95,10,10,9,15,5,20,0.00,2,,229
2013-7-11,82,76,70,76,72,69,94,84,74,30.02,29.97,29.90,10,8,1,22,5,26,0.91,4,Rain-Thunderstorm,185
2013-7-12,92,81,69,73,70,66,100,72,44,29.97,29.93,29.88,10,7,0,15,5,20,0.00,4,Fog,318
2013-7-13,88,78,67,67,64,61,90,65,40,29.98,29.94,29.91,10,10,9,13,4,16,0.00,0,,16
2013-7-14,89,79,69,72,69,66,93,74,55,30.04,29.99,29.92,10,10,7,18,4,24,0.13,3,Rain-Thunderstorm,114
2013-7-15,90,80,70,73,71,68,93,73,52,30.16,30.10,30.01,10,10,9,13,5,23,0.00,3,Rain,109
2013-7-16,89,81,72,72,71,69,93,73,52,30.22,30.17,30.13,10,10,10,15,6,21,0.00,4,,82
2013-7-17,94,83,71,73,71,69,93,70,46,30.25,30.20,30.13,10,10,9,13,4,16,0.00,2,,76
2013-7-18,90,80,70,73,71,70,100,80,59,30.17,30.10,30.04,10,8,1,17,3,29,0.73,3,Rain-Thunderstorm,274
2013-7-19,91,81,70,75,72,70,100,76,52,30.11,30.04,29.96,10,5,0,12,1,15,0.00,3,Fog-Rain,244
2013-7-20,92,81,70,72,70,68,93,71,49,30.00,29.96,29.89,10,10,7,15,3,20,0.00,2,Rain-Thunderstorm,174
2013-7-21,92,82,71,74,71,68,93,73,52,30.02,29.98,29.95,10,10,9,21,8,26,T,2,Rain,194
2013-7-22,92,83,74,75,72,71,93,75,56,30.05,29.99,29.94,10,10,10,18,8,22,0.01,4,Rain-Thunderstorm,223
2013-7-23,93,85,76,75,73,70,94,73,52,30.02,29.96,29.88,10,10,7,16,8,23,0.00,2,,225
2013-7-24,84,78,72,75,72,67,100,83,65,29.96,29.92,29.88,10,9,6,12,4,16,0.04,4,Rain,263
2013-7-25,91,80,69,73,69,61,100,71,41,30.05,29.98,29.92,10,7,1,13,5,17,0.00,3,,344
2013-7-26,89,77,64,71,67,62,93,68,43,30.07,30.02,29.96,10,10,9,12,2,15,0.00,0,,308
2013-7-27,81,76,71,74,71,68,100,88,76,29.98,29.93,29.88,10,7,2,12,4,15,0.85,7,Rain-Thunderstorm,77
2013-7-28,91,81,71,75,71,69,100,76,52,30.02,29.96,29.91,10,7,0,13,3,16,0.00,4,Fog-Rain,7
2013-7-29,93,83,72,73,70,67,93,69,44,30.12,30.07,30.01,10,9,4,8,3,12,0.00,0,,105
2013-7-30,96,86,75,77,73,69,94,69,43,30.15,30.09,30.05,10,8,4,9,2,12,0.00,2,,204
2013-7-31,94,86,77,75,71,64,91,66,41,30.09,30.03,29.96,10,10,7,13,4,16,0.00,2,,255